createdAt,value
2023-04-25T00:00:37.330Z,12.40
2023-04-25T00:03:56.442Z,12.38
2023-04-25T00:07:14.751Z,12.44
2023-04-25T00:10:31.856Z,12.49
2023-04-25T00:13:48.930Z,12.45
2023-04-25T00:17:06.296Z,12.42
2023-04-25T00:20:23.783Z,12.42
2023-04-25T00:23:41.980Z,12.38
2023-04-25T00:26:58.328Z,12.33
2023-04-25T00:30:17.711Z,12.07
2023-04-25T00:33:36.731Z,12.01
2023-04-25T00:36:53.210Z,11.96
2023-04-25T00:40:10.709Z,11.91
2023-04-25T00:43:27.003Z,11.86
2023-04-25T00:46:44.518Z,11.79
2023-04-25T00:50:00.832Z,11.76
2023-04-25T00:53:17.436Z,11.63
2023-04-25T00:56:33.950Z,11.56
2023-04-25T00:59:53.628Z,11.40
2023-04-25T01:03:12.530Z,11.35
2023-04-25T01:06:29.270Z,11.33
2023-04-25T01:09:46.286Z,11.32
2023-04-25T01:13:03.352Z,11.36
2023-04-25T01:16:19.719Z,11.36
2023-04-25T01:19:36.450Z,11.36
2023-04-25T01:22:53.186Z,11.37
2023-04-25T01:26:10.056Z,11.40
2023-04-25T01:29:27.000Z,11.35
2023-04-25T01:32:44.819Z,11.35
2023-04-25T01:36:02.025Z,11.38
2023-04-25T01:39:19.268Z,11.41
2023-04-25T01:42:35.544Z,11.37
2023-04-25T01:45:53.528Z,11.32
2023-04-25T01:49:10.181Z,11.35
2023-04-25T01:52:27.153Z,11.21
2023-04-25T01:55:43.655Z,11.24
2023-04-25T01:59:02.758Z,11.23
2023-04-25T02:02:36.691Z,11.22
2023-04-25T02:05:54.982Z,11.30
2023-04-25T02:09:12.122Z,11.22
2023-04-25T02:12:30.161Z,11.31
2023-04-25T02:16:06.760Z,11.30
2023-04-25T02:19:23.193Z,11.28
2023-04-25T02:22:40.232Z,11.27
2023-04-25T02:25:57.819Z,11.35
2023-04-25T02:29:14.144Z,11.25
2023-04-25T02:32:30.708Z,11.23
2023-04-25T02:35:47.209Z,11.26
2023-04-25T02:39:03.488Z,11.19
2023-04-25T02:42:19.923Z,11.17
2023-04-25T02:45:37.012Z,11.19
2023-04-25T02:48:53.168Z,11.16
2023-04-25T02:52:09.463Z,11.04
2023-04-25T02:55:27.878Z,11.09
2023-04-25T02:58:44.567Z,11.07
2023-04-25T03:02:01.546Z,11.10
2023-04-25T03:05:18.682Z,11.06
2023-04-25T03:08:36.408Z,11.10
2023-04-25T03:11:53.112Z,11.09
2023-04-25T03:15:10.283Z,11.05
2023-04-25T03:18:27.411Z,10.98
2023-04-25T03:21:44.631Z,10.98
2023-04-25T03:25:01.904Z,10.84
2023-04-25T03:28:18.302Z,10.82
2023-04-25T03:31:34.890Z,10.86
2023-04-25T03:34:51.353Z,10.89
2023-04-25T03:38:07.740Z,10.79
2023-04-25T03:41:25.752Z,10.86
2023-04-25T03:44:43.668Z,10.87
2023-04-25T03:48:00.141Z,10.83
2023-04-25T03:51:17.653Z,10.76
2023-04-25T03:54:34.164Z,10.65
2023-04-25T03:57:55.174Z,10.61
2023-04-25T04:01:12.174Z,10.56
2023-04-25T04:04:28.932Z,10.54
2023-04-25T04:07:46.068Z,10.57
2023-04-25T04:11:04.226Z,10.56
2023-04-25T04:14:21.645Z,10.52
2023-04-25T04:17:39.594Z,10.56
2023-04-25T04:20:57.723Z,10.53
2023-04-25T04:24:15.349Z,10.47
2023-04-25T04:27:36.303Z,10.40
2023-04-25T04:30:57.774Z,10.32
2023-04-25T04:34:14.689Z,10.34
2023-04-25T04:37:31.202Z,10.32
2023-04-25T04:40:49.735Z,10.40
2023-04-25T04:44:10.819Z,10.40
2023-04-25T04:47:30.955Z,10.37
2023-04-25T04:50:49.597Z,10.32
2023-04-25T04:54:11.716Z,10.26
2023-04-25T04:57:37.826Z,10.28
2023-04-25T05:01:02.096Z,10.28
2023-04-25T05:04:20.365Z,10.32
2023-04-25T05:07:46.372Z,10.36
2023-04-25T05:11:20.044Z,10.35
2023-04-25T05:14:49.188Z,10.27
2023-04-25T05:18:23.696Z,10.32
2023-04-25T05:30:02.364Z,10.27
2023-04-25T05:33:27.391Z,10.15
2023-04-25T05:36:43.906Z,10.15
2023-04-25T05:40:00.378Z,10.16
2023-04-25T05:43:21.376Z,10.14
2023-04-25T05:46:42.273Z,10.19
2023-04-25T05:50:18.887Z,10.06
2023-04-25T05:53:48.924Z,9.95
2023-04-25T05:57:07.436Z,10.04
2023-04-25T06:00:25.866Z,10.02
2023-04-25T06:03:44.324Z,9.91
2023-04-25T06:07:01.431Z,9.84
2023-04-25T06:10:20.329Z,9.88
2023-04-25T06:13:36.905Z,9.82
2023-04-25T06:16:53.254Z,9.83
2023-04-25T06:20:10.971Z,9.75
2023-04-25T06:23:28.476Z,9.78
2023-04-25T06:26:49.642Z,9.77
2023-04-25T06:30:06.301Z,9.76
2023-04-25T06:33:23.322Z,9.80
2023-04-25T06:36:40.411Z,9.74
2023-04-25T06:39:57.527Z,9.78
2023-04-25T06:43:13.728Z,9.77
2023-04-25T06:46:50.070Z,9.93
2023-04-25T06:50:06.638Z,10.00
2023-04-25T06:53:23.985Z,10.04
2023-04-25T06:56:42.193Z,10.10
2023-04-25T07:00:02.090Z,10.12
2023-04-25T07:03:18.643Z,10.19
2023-04-25T07:06:36.267Z,10.27
2023-04-25T07:09:52.705Z,10.30
2023-04-25T07:13:09.943Z,10.42
2023-04-25T07:16:27.018Z,10.43
2023-04-25T07:19:46.846Z,10.45
2023-04-25T07:23:03.317Z,10.34
2023-04-25T07:26:24.593Z,10.43
2023-04-25T07:29:59.237Z,10.43
2023-04-25T07:33:15.878Z,10.45
2023-04-25T07:36:32.953Z,10.55
2023-04-25T07:39:50.337Z,10.49
2023-04-25T07:43:06.685Z,10.60
2023-04-25T07:46:25.382Z,10.61
2023-04-25T07:49:42.425Z,10.73
2023-04-25T07:52:58.868Z,10.89
2023-04-25T07:56:17.630Z,10.76
2023-04-25T07:59:35.105Z,10.75
2023-04-25T08:02:53.033Z,10.71
2023-04-25T08:06:11.580Z,10.81
2023-04-25T08:09:31.154Z,10.81
2023-04-25T08:12:47.525Z,10.91
2023-04-25T08:16:04.429Z,10.91
2023-04-25T08:19:21.971Z,11.03
2023-04-25T08:22:40.410Z,10.94
2023-04-25T08:26:04.297Z,10.85
2023-04-25T08:29:21.236Z,10.63
2023-04-25T08:32:39.687Z,10.66
2023-04-25T08:36:01.014Z,10.64
2023-04-25T08:39:18.224Z,10.71
2023-04-25T08:42:39.755Z,10.78
2023-04-25T08:45:56.536Z,10.81
2023-04-25T08:49:16.036Z,10.78
2023-04-25T08:52:37.383Z,10.73
2023-04-25T08:55:54.279Z,10.83
2023-04-25T08:59:10.878Z,10.91
2023-04-25T09:02:28.083Z,10.90
2023-04-25T09:05:45.698Z,10.76
2023-04-25T09:09:03.853Z,10.70
2023-04-25T09:12:20.863Z,10.68
2023-04-25T09:15:38.169Z,10.65
2023-04-25T09:18:58.882Z,10.75
2023-04-25T09:22:16.989Z,10.66
2023-04-25T09:25:34.474Z,10.65
2023-04-25T09:28:50.954Z,10.69
2023-04-25T09:32:25.177Z,10.67
2023-04-25T09:35:50.386Z,10.60
2023-04-25T09:39:11.762Z,10.66
2023-04-25T09:42:33.018Z,10.56
2023-04-25T09:45:58.910Z,10.46
2023-04-25T09:49:19.297Z,10.52
2023-04-25T09:52:37.749Z,10.59
2023-04-25T09:56:02.756Z,10.63
2023-04-25T09:59:20.481Z,10.64
2023-04-25T10:02:37.738Z,10.57
2023-04-25T10:05:57.799Z,10.62
2023-04-25T10:09:16.111Z,10.79
2023-04-25T10:12:33.180Z,10.89
2023-04-25T10:15:50.345Z,10.95
2023-04-25T10:19:07.119Z,10.97
2023-04-25T10:22:30.009Z,10.98
2023-04-25T10:25:47.146Z,11.02
2023-04-25T10:29:11.355Z,11.02
2023-04-25T10:32:29.512Z,11.05
2023-04-25T10:35:46.942Z,11.13
2023-04-25T10:39:05.625Z,11.16
2023-04-25T10:42:29.259Z,11.38
2023-04-25T10:46:02.149Z,11.56
2023-04-25T10:49:21.356Z,11.70
2023-04-25T10:52:39.701Z,11.65
2023-04-25T10:56:03.332Z,11.71
2023-04-25T10:59:23.418Z,11.57
2023-04-25T11:02:40.724Z,11.70
2023-04-25T11:05:58.605Z,11.78
2023-04-25T11:09:20.360Z,11.73
2023-04-25T11:12:38.773Z,11.70
2023-04-25T11:16:07.498Z,11.67
2023-04-25T11:19:18.504Z,11.78
2023-04-25T11:22:35.533Z,11.88
2023-04-25T11:25:54.594Z,12.04
2023-04-25T11:29:34.229Z,12.03
2023-04-25T11:32:54.072Z,11.92
2023-04-25T11:36:11.308Z,11.90
2023-04-25T11:39:30.510Z,11.74
2023-04-25T11:42:50.131Z,11.76
2023-04-25T11:46:08.293Z,11.80
2023-04-25T11:49:26.791Z,11.68
2023-04-25T11:52:52.551Z,11.54
2023-04-25T11:56:09.328Z,11.51
2023-04-25T11:59:33.000Z,11.54
2023-04-25T12:02:52.403Z,11.48
2023-04-25T12:06:13.837Z,11.54
2023-04-25T12:09:37.362Z,11.52
2023-04-25T12:12:55.870Z,11.52
2023-04-25T12:16:13.060Z,11.56
2023-04-25T12:19:30.810Z,11.56
2023-04-25T12:22:51.707Z,11.56
2023-04-25T12:26:09.138Z,11.52
2023-04-25T12:29:34.732Z,11.51
2023-04-25T12:32:48.619Z,11.52
2023-04-25T12:36:08.533Z,11.46
2023-04-25T12:39:30.704Z,11.40
2023-04-25T12:42:47.481Z,11.36
2023-04-25T12:46:06.840Z,11.37
2023-04-25T12:49:27.345Z,11.20
2023-04-25T12:52:44.072Z,10.99
2023-04-25T12:56:07.569Z,10.82
2023-04-25T12:59:43.853Z,10.59
2023-04-25T13:03:01.097Z,10.47
2023-04-25T13:06:19.671Z,10.59
2023-04-25T13:09:36.503Z,10.37
2023-04-25T13:12:56.026Z,10.46
2023-04-25T13:16:16.181Z,10.32
2023-04-25T13:19:33.336Z,10.46
2023-04-25T13:22:51.983Z,10.55
2023-04-25T13:29:24.975Z,10.56
2023-04-25T13:32:43.075Z,10.47
2023-04-25T13:36:02.954Z,10.45
2023-04-25T13:39:20.943Z,10.43
2023-04-25T13:42:38.995Z,10.44
2023-04-25T13:45:58.211Z,10.36
2023-04-25T13:49:16.163Z,10.43
2023-04-25T13:52:32.782Z,10.54
2023-04-25T13:55:49.604Z,10.58
2023-04-25T13:59:06.147Z,10.69
2023-04-25T14:02:23.417Z,10.67
2023-04-25T14:05:42.160Z,10.83
2023-04-25T14:08:59.314Z,10.86
2023-04-25T14:12:16.063Z,10.76
2023-04-25T14:15:33.528Z,10.82
2023-04-25T14:18:50.140Z,10.81
2023-04-25T14:22:07.829Z,11.02
2023-04-25T14:25:24.608Z,11.06
2023-04-25T14:28:42.842Z,11.17
2023-04-25T14:32:01.027Z,11.13
2023-04-25T14:35:18.475Z,11.11
2023-04-25T14:38:35.105Z,11.11
2023-04-25T14:41:51.819Z,11.02
2023-04-25T14:45:09.796Z,11.00
2023-04-25T14:48:27.946Z,10.80
2023-04-25T14:51:44.831Z,10.91
2023-04-25T14:55:02.014Z,10.94
2023-04-25T14:58:18.727Z,10.99
2023-04-25T15:01:35.215Z,10.98
2023-04-25T15:04:52.110Z,10.91
2023-04-25T15:08:08.677Z,10.81
2023-04-25T15:11:25.143Z,10.79
2023-04-25T15:14:41.473Z,10.84
2023-04-25T15:17:59.266Z,10.85
2023-04-25T15:21:16.161Z,10.86
2023-04-25T15:24:32.628Z,10.88
2023-04-25T15:27:50.041Z,10.83
2023-04-25T15:31:06.299Z,10.75
2023-04-25T15:34:22.905Z,10.80
2023-04-25T15:37:39.406Z,10.84
2023-04-25T15:45:47.559Z,10.92
2023-04-25T15:49:04.472Z,11.00
2023-04-25T15:52:22.781Z,11.02
2023-04-25T15:55:39.862Z,11.03
2023-04-25T15:58:56.434Z,11.07
2023-04-25T16:02:12.867Z,11.12
2023-04-25T16:05:31.420Z,11.15
2023-04-25T16:08:50.445Z,11.16
2023-04-25T16:12:07.484Z,11.15
2023-04-25T16:15:27.148Z,11.20
2023-04-25T16:18:43.671Z,11.13
2023-04-25T16:22:00.245Z,11.13
2023-04-25T16:25:19.879Z,11.08
2023-04-25T16:28:36.964Z,11.17
2023-04-25T16:31:53.547Z,11.25
2023-04-25T16:35:10.552Z,11.26
2023-04-25T16:38:26.948Z,11.22
2023-04-25T16:41:45.222Z,11.17
2023-04-25T16:45:03.110Z,11.10
2023-04-25T16:48:21.435Z,10.99
2023-04-25T16:51:38.140Z,10.94
2023-04-25T16:54:54.730Z,10.98
2023-04-25T16:58:13.001Z,10.86
2023-04-25T17:01:33.392Z,10.87
2023-04-25T17:04:50.115Z,10.90
2023-04-25T17:08:07.682Z,10.82
2023-04-25T17:11:36.686Z,10.80
2023-04-25T17:14:53.300Z,10.73
2023-04-25T17:18:10.085Z,10.60
2023-04-25T17:21:26.761Z,10.50
2023-04-25T17:24:47.188Z,10.46
2023-04-25T17:28:03.900Z,10.36
2023-04-25T17:31:24.257Z,10.29
2023-04-25T17:34:44.732Z,10.24
2023-04-25T17:38:19.035Z,10.13
2023-04-25T17:44:51.773Z,10.00
2023-04-25T17:48:08.729Z,9.89
2023-04-25T17:51:25.349Z,9.77
2023-04-25T17:54:45.045Z,9.66
2023-04-25T17:58:02.069Z,9.62
2023-04-25T18:01:18.812Z,9.52
2023-04-25T18:04:36.271Z,9.56
2023-04-25T18:07:55.270Z,9.45
2023-04-25T18:11:12.927Z,9.47
2023-04-25T18:17:46.972Z,9.26
2023-04-25T18:21:05.924Z,9.14
2023-04-25T18:24:23.443Z,9.14
2023-04-25T18:30:55.870Z,9.14
2023-04-25T18:34:12.769Z,9.05
2023-04-25T18:37:29.238Z,9.04
2023-04-25T18:40:57.511Z,9.04
2023-04-25T18:44:06.099Z,8.93
2023-04-25T18:47:22.839Z,8.96
2023-04-25T18:50:39.867Z,9.06
2023-04-25T18:53:56.704Z,9.06
2023-04-25T19:00:30.024Z,9.09
2023-04-25T19:03:46.983Z,9.00
2023-04-25T19:07:03.625Z,8.92
2023-04-25T19:10:23.092Z,8.84
2023-04-25T19:13:37.715Z,8.80
2023-04-25T19:16:54.484Z,8.72
2023-04-25T19:20:12.359Z,8.63
2023-04-25T19:23:31.912Z,8.62
2023-04-25T19:26:50.517Z,8.56
2023-04-25T19:34:21.957Z,8.63
2023-04-25T19:37:39.156Z,8.64
2023-04-25T19:40:56.186Z,8.70
2023-04-25T19:44:14.448Z,8.82
2023-04-25T19:47:31.444Z,8.94
2023-04-25T19:50:49.357Z,8.95
2023-04-25T19:54:05.888Z,8.93
2023-04-25T19:57:25.410Z,8.89
2023-04-25T20:00:42.070Z,8.87
2023-04-25T20:03:58.571Z,8.80
2023-04-25T20:07:15.149Z,8.76
2023-04-25T20:10:31.857Z,8.76
2023-04-25T20:13:48.446Z,8.71
2023-04-25T20:17:13.411Z,8.68
2023-04-25T20:20:29.942Z,8.53
2023-04-25T20:23:46.626Z,8.50
2023-04-25T20:27:04.133Z,8.43
2023-04-25T20:30:36.250Z,8.41
2023-04-25T20:33:52.930Z,8.41
2023-04-25T20:37:12.173Z,8.47
2023-04-25T20:40:28.715Z,8.50
2023-04-25T20:43:45.345Z,8.56
2023-04-25T20:47:01.870Z,8.58
2023-04-25T20:50:21.084Z,8.56
2023-04-25T20:53:38.065Z,8.57
2023-04-25T20:56:54.779Z,8.62
2023-04-25T21:00:18.007Z,8.63
2023-04-25T21:03:34.675Z,8.68
2023-04-25T21:06:51.301Z,8.68
2023-04-25T21:10:07.578Z,8.63
2023-04-25T21:13:24.037Z,8.57
2023-04-25T21:16:41.640Z,8.60
2023-04-25T21:19:58.128Z,8.58
2023-04-25T21:23:14.533Z,8.63
2023-04-25T21:26:31.213Z,8.64
2023-04-25T21:29:50.030Z,8.65
2023-04-25T21:33:06.702Z,8.71
2023-04-25T21:36:26.520Z,8.64
2023-04-25T21:39:43.563Z,8.70
2023-04-25T21:43:00.526Z,8.74
2023-04-25T21:46:23.511Z,8.75
2023-04-25T21:49:37.141Z,8.73
2023-04-25T21:52:55.147Z,8.76
2023-04-25T21:56:11.853Z,8.74
2023-04-25T21:59:30.438Z,8.73
2023-04-25T22:02:47.077Z,8.72
2023-04-25T22:06:04.794Z,8.68
2023-04-25T22:09:21.011Z,8.67
2023-04-25T22:19:10.425Z,8.72
2023-04-25T22:22:27.432Z,8.73
2023-04-25T22:25:43.871Z,8.74
2023-04-25T22:29:00.240Z,8.70
2023-04-25T22:32:16.730Z,8.64
2023-04-25T22:35:33.173Z,8.65
2023-04-25T22:38:50.423Z,8.60
2023-04-25T22:42:06.863Z,8.62
2023-04-25T22:48:39.702Z,8.58
2023-04-25T22:51:57.911Z,8.58
2023-04-25T22:55:16.197Z,8.60
2023-04-25T22:58:31.541Z,8.55
2023-04-25T23:01:47.977Z,8.56
2023-04-25T23:05:05.627Z,8.59
2023-04-25T23:08:22.244Z,8.62
2023-04-25T23:11:38.610Z,8.56
2023-04-25T23:14:59.463Z,8.55
2023-04-25T23:18:15.833Z,8.53
2023-04-25T23:21:32.228Z,8.55
2023-04-25T23:24:48.621Z,8.53
2023-04-25T23:31:20.675Z,8.54
2023-04-25T23:34:41.539Z,8.54
2023-04-25T23:37:57.839Z,8.49
2023-04-25T23:41:14.622Z,8.46
2023-04-25T23:47:46.767Z,8.41
2023-04-25T23:51:03.093Z,8.41
2023-04-25T23:54:20.514Z,8.36
2023-04-25T23:57:37.209Z,8.34
